Time;durP1;ratioP1;P1;durP2;ratioP2;P2;SDS_P1;SDS_P2;PMS_P1;PMS_P2;Temp;Humidity;BMP_temperature;BMP_pressure;BME280_temperature;BME280_humidity;BME280_pressure;Samples;Min_cycle;Max_cycle;Signal;HPM_P1;HPM_P2
2023/04/12 00:07:17;;;;;;;3.40;1.85;;;9.00;17.10;;;;;;20626729;28;20037;-42
2023/04/12 00:17:18;;;;;;;5.57;1.75;;;8.90;33.00;;;;;;20623799;28;20506;-42
2023/04/12 00:27:19;;;;;;;1.40;0.50;;;8.80;47.30;;;;;;20622273;28;20054;-42
2023/04/12 00:37:20;;;;;;;2.65;1.13;;;8.70;65.10;;;;;;20613133;28;20042;-42
2023/04/12 00:47:21;;;;;;;2.13;0.98;;;8.60;78.60;;;;;;20603607;28;20042;-42
2023/04/12 00:57:22;;;;;;;3.47;0.85;;;8.60;80.90;;;;;;20601936;28;20053;-42
2023/04/12 01:07:32;;;;;;;1.73;0.82;;;8.60;84.30;;;;;;20608387;28;20058;-42
2023/04/12 01:17:47;;;;;;;0.77;0.35;;;8.60;79.30;;;;;;20599429;28;20061;-42
2023/04/12 01:27:53;;;;;;;1.65;0.75;;;8.50;62.20;;;;;;20605949;28;20046;-42
2023/04/12 01:37:59;;;;;;;1.02;0.38;;;8.50;56.70;;;;;;20633386;28;20045;-42
2023/04/12 01:48:02;;;;;;;1.60;0.63;;;8.50;53.20;;;;;;20627166;28;20038;-42
2023/04/12 01:58:04;;;;;;;1.52;0.50;;;8.60;46.00;;;;;;20613738;28;20580;-42
2023/04/12 02:08:06;;;;;;;2.28;0.80;;;8.60;54.20;;;;;;20631762;28;20050;-42
2023/04/12 02:18:07;;;;;;;1.58;0.63;;;8.50;71.30;;;;;;20632772;28;20050;-42
2023/04/12 02:28:08;;;;;;;1.83;1.00;;;8.40;84.20;;;;;;20625865;28;20042;-42
2023/04/12 02:38:09;;;;;;;8.15;0.65;;;8.40;98.70;;;;;;20630622;28;20053;-42
2023/04/12 02:48:10;;;;;;;1.17;0.50;;;8.40;95.20;;;;;;20635533;28;20041;-42
2023/04/12 02:58:11;;;;;;;3.10;0.63;;;8.40;99.90;;;;;;20630932;28;20653;-42
2023/04/12 03:08:13;;;;;;;1.58;0.52;;;8.40;99.90;;;;;;20622135;28;20386;-42
2023/04/12 03:18:14;;;;;;;2.17;0.73;;;8.30;99.90;;;;;;20621344;28;20042;-42
2023/04/12 03:28:16;;;;;;;3.38;0.77;;;8.30;99.90;;;;;;20630819;28;20038;-41
2023/04/12 03:38:17;;;;;;;1.55;0.55;;;8.30;99.90;;;;;;20634365;28;20042;-41
2023/04/12 03:48:18;;;;;;;3.40;0.95;;;8.20;99.90;;;;;;20632985;28;20406;-41
2023/04/12 03:58:19;;;;;;;2.15;0.93;;;8.20;99.90;;;;;;20629814;28;20054;-42
2023/04/12 04:08:20;;;;;;;1.08;0.57;;;8.10;99.90;;;;;;20581385;28;21173;-41
2023/04/12 04:18:21;;;;;;;8.13;1.40;;;8.10;99.90;;;;;;20623805;28;20043;-41
2023/04/12 04:28:24;;;;;;;1.50;0.40;;;8.20;99.90;;;;;;20637152;28;20466;-41
2023/04/12 04:38:25;;;;;;;2.60;0.85;;;8.20;99.90;;;;;;20616122;28;20053;-41
2023/04/12 04:48:26;;;;;;;3.75;1.10;;;8.20;99.90;;;;;;20604093;28;20051;-41
2023/04/12 04:58:27;;;;;;;2.38;1.45;;;8.20;99.90;;;;;;20652943;28;20046;-41
2023/04/12 05:08:28;;;;;;;1.33;0.63;;;8.30;99.90;;;;;;20652452;28;20038;-41
2023/04/12 05:18:29;;;;;;;2.38;1.00;;;8.30;99.90;;;;;;20652171;28;20050;-41
2023/04/12 05:28:30;;;;;;;1.42;0.63;;;8.30;99.90;;;;;;20593374;28;20038;-41
2023/04/12 05:38:31;;;;;;;1.83;0.70;;;8.30;99.90;;;;;;20627046;28;20053;-41
2023/04/12 05:48:32;;;;;;;3.22;1.00;;;8.40;99.90;;;;;;20629063;28;20141;-41
2023/04/12 05:58:33;;;;;;;3.33;1.20;;;8.50;99.90;;;;;;20646165;28;20042;-42
2023/04/12 06:08:36;;;;;;;2.60;1.33;;;8.50;99.90;;;;;;20625611;28;20042;-41
2023/04/12 06:18:37;;;;;;;4.65;1.95;;;8.60;99.90;;;;;;20624324;28;20411;-41
2023/04/12 06:28:38;;;;;;;3.22;1.20;;;8.60;99.90;;;;;;20641910;28;20565;-41
2023/04/12 06:38:39;;;;;;;4.68;2.00;;;8.70;99.90;;;;;;20634300;28;20042;-41
2023/04/12 06:48:40;;;;;;;7.07;3.10;;;8.70;99.90;;;;;;20640659;28;20068;-41
2023/04/12 06:58:41;;;;;;;4.10;2.17;;;8.80;99.90;;;;;;20636283;28;20057;-41
2023/04/12 07:08:42;;;;;;;5.35;2.03;;;8.90;99.90;;;;;;20639840;28;20292;-42
2023/04/12 07:18:44;;;;;;;3.30;1.35;;;9.00;99.90;;;;;;20651934;28;20405;-42
2023/04/12 07:28:45;;;;;;;5.70;2.35;;;9.00;99.90;;;;;;20649273;28;20054;-42
2023/04/12 07:38:46;;;;;;;5.85;2.72;;;9.10;99.90;;;;;;20643762;28;20046;-42
2023/04/12 07:48:47;;;;;;;7.47;3.22;;;9.30;99.90;;;;;;20646447;28;20049;-42
2023/04/12 07:58:48;;;;;;;4.32;1.80;;;9.30;99.90;;;;;;20643518;28;20391;-41
2023/04/12 08:08:49;;;;;;;10.05;2.83;;;9.40;99.90;;;;;;20642947;28;20034;-42
2023/04/12 08:18:50;;;;;;;6.85;2.05;;;9.60;99.90;;;;;;20646337;28;20054;-41
2023/04/12 08:28:52;;;;;;;17.17;3.22;;;9.90;99.90;;;;;;20633288;28;20064;-41
2023/04/12 08:38:56;;;;;;;7.13;1.70;;;10.30;99.90;;;;;;20653051;28;20046;-41
2023/04/12 08:48:57;;;;;;;5.97;0.95;;;11.20;63.90;;;;;;20649129;28;20038;-42
2023/04/12 08:59:00;;;;;;;5.03;1.90;;;11.40;16.90;;;;;;20639544;28;20053;-42
2023/04/12 09:09:05;;;;;;;5.95;2.60;;;11.20;1.00;;;;;;20647897;28;20042;-42
2023/04/12 09:19:07;;;;;;;4.65;0.82;;;11.30;1.00;;;;;;20648521;28;20042;-42
2023/04/12 09:29:23;;;;;;;5.95;1.65;;;11.60;1.00;;;;;;20656580;28;20061;-42
2023/04/12 09:39:34;;;;;;;7.03;2.03;;;11.50;1.00;;;;;;20658980;28;20053;-42
2023/04/12 09:49:44;;;;;;;4.18;1.33;;;11.60;1.00;;;;;;20661387;28;20481;-42
2023/04/12 09:59:48;;;;;;;5.97;1.60;;;11.90;1.00;;;;;;20674119;28;20061;-42
2023/04/12 10:09:50;;;;;;;5.68;2.22;;;12.00;1.00;;;;;;20660144;28;20030;-42
2023/04/12 10:19:51;;;;;;;3.30;1.27;;;12.50;1.00;;;;;;20666196;28;20391;-42
2023/04/12 10:29:52;;;;;;;4.03;1.38;;;12.10;1.00;;;;;;20648683;28;21436;-42
2023/04/12 10:39:54;;;;;;;3.00;1.58;;;12.20;1.00;;;;;;20648587;28;20307;-42
2023/04/12 10:50:32;;;;;;;5.30;1.38;;;12.80;1.00;;;;;;20648186;28;20048;-42
2023/04/12 11:01:08;;;;;;;5.97;1.38;;;12.70;1.00;;;;;;20644428;28;20049;-42
2023/04/12 11:11:21;;;;;;;3.65;0.65;;;13.00;1.00;;;;;;20644564;28;20038;-42
2023/04/12 11:21:24;;;;;;;4.63;0.90;;;13.50;1.00;;;;;;20655451;28;20540;-42
2023/04/12 11:31:25;;;;;;;6.90;2.40;;;13.70;1.00;;;;;;20654533;28;20497;-42
2023/04/12 11:41:26;;;;;;;8.15;1.50;;;12.90;1.00;;;;;;20630133;28;20391;-42
2023/04/12 11:51:29;;;;;;;1.83;0.52;;;12.50;1.00;;;;;;20647130;28;20034;-41
2023/04/12 12:01:31;;;;;;;2.90;1.13;;;13.20;1.00;;;;;;20649359;28;20113;-42
2023/04/12 12:11:32;;;;;;;1.98;0.50;;;13.00;1.00;;;;;;20641319;28;20038;-41
2023/04/12 12:21:33;;;;;;;1.30;0.68;;;12.70;1.00;;;;;;20642271;28;21583;-42
2023/04/12 12:31:34;;;;;;;1.50;0.22;;;13.00;1.00;;;;;;20646780;28;20057;-42
2023/04/12 12:41:36;;;;;;;1.95;0.30;;;12.80;1.00;;;;;;20642395;28;20049;-42
2023/04/12 12:51:37;;;;;;;1.85;0.35;;;12.90;1.00;;;;;;20624219;28;20198;-41
2023/04/12 13:01:38;;;;;;;1.20;0.22;;;12.50;1.00;;;;;;20645187;28;20106;-42
2023/04/12 13:11:39;;;;;;;2.30;0.45;;;12.10;1.00;;;;;;20638794;28;21564;-42
2023/04/12 13:21:41;;;;;;;2.38;0.60;;;12.10;1.00;;;;;;20638767;28;20061;-42
2023/04/12 13:31:42;;;;;;;1.35;0.40;;;12.60;1.00;;;;;;20658627;28;20046;-42
2023/04/12 13:41:44;;;;;;;3.03;0.30;;;14.20;1.00;;;;;;20643037;28;20050;-42
2023/04/12 13:51:45;;;;;;;2.30;0.75;;;15.10;1.00;;;;;;20644033;28;20085;-42
2023/04/12 14:01:46;;;;;;;1.52;0.25;;;13.70;1.00;;;;;;20645943;28;20046;-42
2023/04/12 14:11:48;;;;;;;0.77;0.30;;;12.40;1.00;;;;;;20642291;28;20042;-42
2023/04/12 14:21:49;;;;;;;2.35;0.50;;;12.20;1.00;;;;;;20649601;28;20053;-42
2023/04/12 14:31:50;;;;;;;1.60;0.50;;;11.80;1.00;;;;;;20663577;28;20053;-42
2023/04/12 14:41:51;;;;;;;0.95;0.30;;;12.20;1.00;;;;;;20620130;28;20593;-42
2023/04/12 14:51:52;;;;;;;0.80;0.20;;;12.30;1.00;;;;;;20641586;28;20375;-42
2023/04/12 15:01:53;;;;;;;1.50;0.10;;;12.50;1.00;;;;;;20643706;28;20058;-42
2023/04/12 15:11:59;;;;;;;1.08;0.20;;;12.50;1.00;;;;;;20623654;28;20700;-42
2023/04/12 15:22:01;;;;;;;0.80;0.30;;;12.10;1.00;;;;;;20655125;28;20054;-42
2023/04/12 15:32:02;;;;;;;0.75;0.30;;;11.80;1.00;;;;;;20648652;28;20038;-41
2023/04/12 15:42:04;;;;;;;0.93;0.30;;;12.00;1.00;;;;;;20643570;28;20050;-41
2023/04/12 15:52:05;;;;;;;10.93;1.67;;;12.00;1.00;;;;;;20632073;28;20502;-41
2023/04/12 16:02:08;;;;;;;3.53;0.50;;;11.90;1.00;;;;;;20611595;28;20050;-42
2023/04/12 16:12:09;;;;;;;1.20;0.60;;;11.70;1.00;;;;;;20621686;28;20042;-42
2023/04/12 16:22:10;;;;;;;2.95;0.30;;;11.50;1.00;;;;;;20607808;28;20054;-41
2023/04/12 16:32:11;;;;;;;1.33;0.55;;;11.30;1.00;;;;;;20622411;28;20634;-42
2023/04/12 16:42:12;;;;;;;4.00;0.77;;;11.00;1.00;;;;;;20612522;28;20035;-42
2023/04/12 16:52:14;;;;;;;0.70;0.40;;;10.90;1.00;;;;;;20616477;28;20097;-42
2023/04/12 17:02:16;;;;;;;2.55;0.45;;;11.10;1.00;;;;;;20610697;28;20058;-41
2023/04/12 17:12:17;;;;;;;2.28;0.57;;;10.90;1.00;;;;;;20600158;28;20042;-43
2023/04/12 17:22:18;;;;;;;1.60;0.50;;;10.70;1.00;;;;;;20628123;28;20053;-43
2023/04/12 17:32:20;;;;;;;2.15;0.63;;;10.80;1.00;;;;;;20606326;28;20502;-43
2023/04/12 17:42:21;;;;;;;2.40;0.98;;;10.80;1.00;;;;;;20629082;28;20049;-43
2023/04/12 17:52:22;;;;;;;4.72;1.20;;;10.70;1.00;;;;;;20622001;28;20038;-43
2023/04/12 18:02:23;;;;;;;0.70;0.30;;;10.50;1.00;;;;;;20619689;28;20390;-43
2023/04/12 18:12:24;;;;;;;0.93;0.38;;;10.60;1.00;;;;;;20628091;28;20042;-43
2023/04/12 18:22:25;;;;;;;3.10;0.47;;;10.30;1.00;;;;;;20642197;28;20053;-43
2023/04/12 18:32:26;;;;;;;1.33;0.25;;;10.20;1.00;;;;;;20647099;28;20547;-43
2023/04/12 18:42:27;;;;;;;1.77;0.70;;;10.00;1.00;;;;;;20646542;28;20054;-43
2023/04/12 18:52:29;;;;;;;1.25;0.20;;;9.70;1.00;;;;;;20656282;28;20053;-43
2023/04/12 19:02:30;;;;;;;2.00;0.70;;;9.60;1.00;;;;;;20645972;28;20056;-43
2023/04/12 19:12:32;;;;;;;3.75;0.70;;;9.50;1.00;;;;;;20635624;28;20038;-43
2023/04/12 19:22:32;;;;;;;1.55;0.40;;;9.40;1.00;;;;;;20637617;28;20042;-43
2023/04/12 19:32:34;;;;;;;3.88;0.52;;;9.30;1.00;;;;;;20638999;28;20205;-40
2023/04/12 19:42:35;;;;;;;2.83;1.38;;;9.30;1.00;;;;;;20627897;28;20077;-40
2023/04/12 19:52:36;;;;;;;2.83;1.23;;;9.30;1.00;;;;;;20637055;28;20045;-40
2023/04/12 20:02:38;;;;;;;2.97;1.00;;;9.00;1.00;;;;;;20634415;28;20515;-41
2023/04/12 20:12:39;;;;;;;3.10;0.75;;;9.00;1.00;;;;;;20611969;28;20474;-41
2023/04/12 20:22:42;;;;;;;2.67;0.73;;;8.80;1.00;;;;;;20611056;28;21528;-40
2023/04/12 20:32:43;;;;;;;2.78;1.27;;;8.80;1.00;;;;;;20614704;28;20498;-41
2023/04/12 20:42:44;;;;;;;1.45;0.40;;;8.90;1.00;;;;;;20619030;28;20077;-41
2023/04/12 20:52:46;;;;;;;2.25;0.90;;;8.90;1.00;;;;;;20601408;28;20042;-41
2023/04/12 21:02:47;;;;;;;9.70;0.50;;;8.90;1.00;;;;;;20593149;28;20346;-40
2023/04/12 21:12:48;;;;;;;1.52;0.38;;;8.90;1.00;;;;;;20607699;28;20045;-41
2023/04/12 21:22:50;;;;;;;3.50;0.30;;;9.00;1.00;;;;;;20596921;28;20046;-41
2023/04/12 21:32:52;;;;;;;0.80;0.30;;;8.80;1.00;;;;;;20604503;28;20046;-40
2023/04/12 21:42:53;;;;;;;1.00;0.20;;;8.70;1.00;;;;;;20635952;28;21653;-40
2023/04/12 21:52:54;;;;;;;1.08;0.40;;;8.70;1.00;;;;;;20659018;28;20129;-41
2023/04/12 22:02:55;;;;;;;1.33;0.35;;;8.70;1.00;;;;;;20659203;28;20049;-40
2023/04/12 22:12:57;;;;;;;3.47;1.05;;;8.50;1.00;;;;;;20640954;28;20049;-40
2023/04/12 22:22:58;;;;;;;1.67;0.52;;;8.10;1.00;;;;;;20643659;28;20101;-40
2023/04/12 22:32:59;;;;;;;1.67;0.70;;;7.80;1.00;;;;;;20639043;28;24623;-40
2023/04/12 22:43:00;;;;;;;0.90;0.30;;;7.00;1.00;;;;;;20679035;28;20062;-40
2023/04/12 22:53:02;;;;;;;1.20;0.20;;;6.60;1.00;;;;;;20660620;28;20045;-41
2023/04/12 23:03:04;;;;;;;0.77;0.50;;;6.60;3.20;;;;;;20656185;28;20054;-41
2023/04/12 23:13:06;;;;;;;1.40;0.70;;;6.70;7.90;;;;;;20650857;28;20042;-41
2023/04/12 23:23:07;;;;;;;4.28;0.82;;;6.70;17.60;;;;;;20650807;28;20049;-42
2023/04/12 23:33:10;;;;;;;1.55;0.50;;;6.90;27.60;;;;;;20655059;28;20187;-41
2023/04/12 23:43:11;;;;;;;1.10;0.28;;;6.70;34.80;;;;;;20642991;28;20051;-41
2023/04/12 23:53:13;;;;;;;6.47;1.23;;;6.60;70.90;;;;;;20623869;28;20045;-41
